Time;durP1;ratioP1;P1;durP2;ratioP2;P2;SDS_P1;SDS_P2;PMS_P1;PMS_P2;Temp;Humidity;BMP_temperature;BMP_pressure;BME280_temperature;BME280_humidity;BME280_pressure;Samples;Min_cycle;Max_cycle;Signal;HPM_P1;HPM_P2
2022/08/25 00:00:33;;;;;;;11.05;5.88;;;;;;;;;;5093838;27;89683;-76
2022/08/25 00:02:59;;;;;;;9.52;6.00;;;;;;;;;;5094486;27;90010;-75
2022/08/25 00:05:27;;;;;;;8.05;5.63;;;;;;;;;;5092651;27;89253;-75
2022/08/25 00:07:57;;;;;;;11.70;6.50;;;;;;;;;;5084182;27;89945;-75
2022/08/25 00:10:24;;;;;;;9.27;6.25;;;;;;;;;;5069280;27;90215;-75
2022/08/25 00:12:51;;;;;;;11.20;5.63;;;;;;;;;;5071672;27;89122;-75
2022/08/25 00:15:18;;;;;;;13.60;6.47;;;;;;;;;;5071379;27;90778;-75
2022/08/25 00:17:44;;;;;;;8.40;5.95;;;;;;;;;;5067164;27;89218;-75
2022/08/25 00:20:11;;;;;;;13.25;6.30;;;;;;;;;;5053959;27;90076;-75
2022/08/25 00:22:38;;;;;;;10.48;6.63;;;;;;;;;;5054272;27;90131;-75
2022/08/25 00:25:04;;;;;;;9.82;6.60;;;;;;;;;;5069848;27;89724;-75
2022/08/25 00:27:31;;;;;;;9.32;6.90;;;;;;;;;;5071249;27;89863;-75
2022/08/25 00:29:57;;;;;;;12.50;7.63;;;;;;;;;;5074147;27;90526;-75
2022/08/25 00:32:24;;;;;;;14.98;7.18;;;;;;;;;;5071430;27;88777;-75
2022/08/25 00:34:50;;;;;;;12.25;6.80;;;;;;;;;;5075431;27;88924;-75
2022/08/25 00:37:17;;;;;;;11.35;6.63;;;;;;;;;;5072077;27;89106;-74
2022/08/25 00:39:43;;;;;;;7.93;6.38;;;;;;;;;;5067383;27;90081;-73
2022/08/25 00:42:12;;;;;;;12.23;6.57;;;;;;;;;;5069368;27;89996;-73
2022/08/25 00:44:42;;;;;;;10.80;6.07;;;;;;;;;;5071784;27;88276;-74
2022/08/25 00:47:09;;;;;;;9.68;6.30;;;;;;;;;;5070152;27;89722;-74
2022/08/25 00:49:39;;;;;;;9.50;5.80;;;;;;;;;;5070530;27;88938;-75
2022/08/25 00:52:07;;;;;;;7.22;5.88;;;;;;;;;;5069634;27;88946;-75
2022/08/25 00:54:37;;;;;;;7.07;5.40;;;;;;;;;;5071817;27;89882;-75
2022/08/25 00:57:05;;;;;;;7.43;5.30;;;;;;;;;;5071999;27;89746;-75
2022/08/25 00:59:31;;;;;;;9.93;6.32;;;;;;;;;;5071388;27;88202;-75
2022/08/25 01:01:58;;;;;;;15.27;6.18;;;;;;;;;;5066084;27;89761;-75
2022/08/25 01:04:25;;;;;;;9.52;6.05;;;;;;;;;;5069708;27;90509;-75
2022/08/25 01:06:51;;;;;;;9.60;5.55;;;;;;;;;;5069309;27;90629;-75
2022/08/25 01:09:18;;;;;;;8.25;6.22;;;;;;;;;;5090803;27;90063;-75
2022/08/25 01:11:45;;;;;;;8.25;5.78;;;;;;;;;;5090869;27;89266;-74
2022/08/25 01:14:15;;;;;;;10.32;5.53;;;;;;;;;;5093693;27;89984;-75
2022/08/25 01:16:43;;;;;;;8.00;6.10;;;;;;;;;;5091383;27;89928;-75
2022/08/25 01:19:12;;;;;;;13.85;6.47;;;;;;;;;;5092650;27;88950;-75
2022/08/25 01:21:47;;;;;;;9.93;6.63;;;;;;;;;;5094929;27;89273;-74
2022/08/25 01:24:20;;;;;;;10.27;7.82;;;;;;;;;;5089232;27;88682;-74
2022/08/25 01:26:46;;;;;;;16.42;7.40;;;;;;;;;;5091705;27;89857;-74
2022/08/25 01:29:24;;;;;;;10.65;7.68;;;;;;;;;;5093351;27;91334;-74
2022/08/25 01:32:01;;;;;;;13.55;9.05;;;;;;;;;;5088347;27;89638;-74
2022/08/25 01:34:29;;;;;;;12.65;8.82;;;;;;;;;;5090209;27;90301;-74
2022/08/25 01:36:55;;;;;;;12.27;8.23;;;;;;;;;;5093292;27;88852;-74
2022/08/25 01:39:22;;;;;;;16.98;9.45;;;;;;;;;;5096927;27;88987;-74
2022/08/25 01:41:58;;;;;;;13.18;8.20;;;;;;;;;;5092811;27;90012;-74
2022/08/25 01:44:25;;;;;;;12.32;8.95;;;;;;;;;;5093099;27;88896;-74
2022/08/25 01:46:52;;;;;;;17.88;8.57;;;;;;;;;;5074428;27;90133;-74
2022/08/25 01:49:18;;;;;;;13.88;9.55;;;;;;;;;;5090572;27;90044;-75
2022/08/25 01:51:51;;;;;;;13.90;9.13;;;;;;;;;;5093450;27;89124;-75
2022/08/25 01:54:17;;;;;;;27.10;10.63;;;;;;;;;;5092741;27;88793;-75
2022/08/25 01:56:44;;;;;;;21.95;11.70;;;;;;;;;;5090030;27;90674;-75
2022/08/25 01:59:13;;;;;;;14.00;10.25;;;;;;;;;;5073641;27;91299;-75
2022/08/25 02:01:46;;;;;;;10.98;8.70;;;;;;;;;;5094254;27;90673;-75
2022/08/25 02:04:13;;;;;;;10.95;8.52;;;;;;;;;;5089066;27;91246;-75
2022/08/25 02:06:41;;;;;;;15.30;8.48;;;;;;;;;;5093469;27;89787;-75
2022/08/25 02:09:10;;;;;;;10.32;7.20;;;;;;;;;;5091956;27;90126;-75
2022/08/25 02:11:37;;;;;;;7.97;6.40;;;;;;;;;;5092693;27;89499;-75
2022/08/25 02:14:03;;;;;;;7.45;6.50;;;;;;;;;;5088787;27;89079;-74
2022/08/25 02:16:31;;;;;;;10.05;6.65;;;;;;;;;;5092419;27;89503;-74
2022/08/25 02:18:58;;;;;;;13.00;6.32;;;;;;;;;;5092568;27;89167;-74
2022/08/25 02:21:25;;;;;;;18.83;6.20;;;;;;;;;;5093301;27;90506;-74
2022/08/25 02:23:52;;;;;;;14.88;6.38;;;;;;;;;;5095132;27;90443;-74
2022/08/25 02:26:18;;;;;;;7.07;5.85;;;;;;;;;;5090747;27;89608;-74
2022/08/25 02:28:46;;;;;;;7.80;5.40;;;;;;;;;;5091032;27;90144;-75
2022/08/25 02:31:13;;;;;;;7.40;5.30;;;;;;;;;;5090018;27;88909;-75
2022/08/25 02:33:39;;;;;;;6.43;5.25;;;;;;;;;;5093064;27;89843;-74
2022/08/25 02:36:06;;;;;;;6.50;4.97;;;;;;;;;;5091891;27;89538;-75
2022/08/25 02:38:32;;;;;;;10.13;4.85;;;;;;;;;;5092989;27;89285;-74
2022/08/25 02:40:59;;;;;;;7.20;4.65;;;;;;;;;;5091455;27;88642;-75
2022/08/25 02:43:26;;;;;;;5.95;4.78;;;;;;;;;;5091658;27;90578;-74
2022/08/25 02:45:54;;;;;;;6.45;5.35;;;;;;;;;;5093481;27;89140;-76
2022/08/25 02:48:20;;;;;;;11.23;5.68;;;;;;;;;;5093504;27;90259;-76
2022/08/25 02:50:48;;;;;;;6.60;5.50;;;;;;;;;;5090004;27;88732;-75
2022/08/25 02:53:14;;;;;;;9.40;5.38;;;;;;;;;;5092933;27;89639;-75
2022/08/25 02:55:40;;;;;;;6.25;5.30;;;;;;;;;;5091830;27;89956;-75
2022/08/25 02:58:07;;;;;;;7.85;5.93;;;;;;;;;;5091703;27;88908;-75
2022/08/25 03:00:34;;;;;;;19.58;6.35;;;;;;;;;;5088496;27;89842;-75
2022/08/25 03:03:01;;;;;;;6.65;5.88;;;;;;;;;;5092188;27;90074;-75
2022/08/25 03:05:27;;;;;;;17.67;12.05;;;;;;;;;;5090918;27;89198;-75
2022/08/25 03:07:53;;;;;;;9.88;7.00;;;;;;;;;;5093698;27;90762;-75
2022/08/25 03:10:20;;;;;;;12.45;7.10;;;;;;;;;;5092919;27;91255;-75
2022/08/25 03:12:46;;;;;;;9.90;7.20;;;;;;;;;;5091610;27;89561;-75
2022/08/25 03:15:15;;;;;;;9.45;7.18;;;;;;;;;;5070643;27;89803;-75
2022/08/25 03:17:43;;;;;;;9.68;7.22;;;;;;;;;;5092579;27;88946;-75
2022/08/25 03:20:11;;;;;;;10.23;7.80;;;;;;;;;;5089177;27;90090;-75
2022/08/25 03:22:37;;;;;;;10.35;8.57;;;;;;;;;;5092271;27;88659;-74
2022/08/25 03:27:50;;;;;;;13.85;9.45;;;;;;;;;;5088017;27;89170;-75
2022/08/25 03:30:17;;;;;;;11.27;9.52;;;;;;;;;;5078145;27;90334;-74
2022/08/25 03:32:43;;;;;;;11.10;9.52;;;;;;;;;;5095534;27;89619;-74
2022/08/25 03:35:09;;;;;;;12.23;9.57;;;;;;;;;;5094130;27;90348;-74
2022/08/25 03:37:36;;;;;;;12.52;8.73;;;;;;;;;;5095823;27;89124;-74
2022/08/25 03:40:04;;;;;;;13.30;9.65;;;;;;;;;;5094440;27;89688;-75
2022/08/25 03:42:31;;;;;;;11.85;9.52;;;;;;;;;;5092007;27;90544;-74
2022/08/25 03:44:58;;;;;;;14.98;9.77;;;;;;;;;;5093378;27;89082;-74
2022/08/25 03:47:25;;;;;;;11.50;9.25;;;;;;;;;;5096115;27;89819;-75
2022/08/25 03:49:51;;;;;;;12.25;9.30;;;;;;;;;;5099024;27;89785;-75
2022/08/25 03:52:17;;;;;;;16.95;9.75;;;;;;;;;;5095692;27;89111;-75
2022/08/25 03:54:44;;;;;;;14.73;10.05;;;;;;;;;;5093979;27;90112;-75
2022/08/25 03:57:11;;;;;;;13.30;9.88;;;;;;;;;;5090795;27;89060;-75
2022/08/25 03:59:37;;;;;;;12.13;10.82;;;;;;;;;;5089459;27;90324;-75
2022/08/25 04:02:04;;;;;;;13.60;10.45;;;;;;;;;;5087485;27;90306;-75
2022/08/25 04:04:30;;;;;;;22.58;10.32;;;;;;;;;;5092375;27;91211;-75
2022/08/25 04:06:57;;;;;;;15.50;10.18;;;;;;;;;;5093637;27;90924;-75
2022/08/25 04:09:23;;;;;;;20.65;10.85;;;;;;;;;;5094034;27;90100;-74
2022/08/25 04:11:51;;;;;;;13.52;11.40;;;;;;;;;;5094978;27;91335;-75
2022/08/25 04:14:19;;;;;;;15.48;10.75;;;;;;;;;;5093475;27;89829;-74
2022/08/25 04:16:46;;;;;;;15.70;10.77;;;;;;;;;;5075362;27;91153;-75
2022/08/25 04:19:12;;;;;;;14.52;11.32;;;;;;;;;;5091892;27;89582;-75
2022/08/25 04:21:39;;;;;;;23.52;12.27;;;;;;;;;;5092917;27;90861;-75
2022/08/25 04:24:06;;;;;;;21.63;12.10;;;;;;;;;;5093259;27;91096;-75
2022/08/25 04:26:34;;;;;;;18.60;11.63;;;;;;;;;;5091977;27;89828;-75
2022/08/25 04:29:02;;;;;;;15.38;11.00;;;;;;;;;;5091452;27;89978;-75
2022/08/25 04:31:29;;;;;;;18.38;11.13;;;;;;;;;;5093039;27;91181;-74
2022/08/25 04:33:56;;;;;;;17.05;10.50;;;;;;;;;;5091298;27;90482;-74
2022/08/25 19:03:09;;;;;;;12.25;6.90;;;;;;;;;;5006149;28;88611;-79
2022/08/25 19:05:40;;;;;;;13.15;6.88;;;;;;;;;;4986305;28;87907;-74
2022/08/25 19:08:11;;;;;;;13.52;7.93;;;;;;;;;;4985574;28;88952;-73
2022/08/25 19:10:40;;;;;;;11.50;8.13;;;;;;;;;;4983148;28;88710;-74
2022/08/25 19:13:06;;;;;;;13.48;7.75;;;;;;;;;;4981424;28;89068;-75
2022/08/25 19:15:34;;;;;;;14.30;7.97;;;;;;;;;;4986232;28;88359;-75
2022/08/25 19:18:01;;;;;;;16.75;8.50;;;;;;;;;;4982113;28;88569;-74
2022/08/25 19:20:32;;;;;;;15.32;8.70;;;;;;;;;;4984016;28;89097;-75
2022/08/25 19:22:59;;;;;;;12.75;8.65;;;;;;;;;;4977069;28;88786;-75
2022/08/25 19:25:26;;;;;;;15.93;9.25;;;;;;;;;;4978143;28;89085;-75
2022/08/25 19:27:59;;;;;;;13.30;9.45;;;;;;;;;;4983088;28;90318;-74
2022/08/25 19:30:27;;;;;;;14.25;9.00;;;;;;;;;;4987078;28;88992;-74
2022/08/25 19:32:55;;;;;;;13.75;9.85;;;;;;;;;;4986765;28;89091;-74
2022/08/25 19:35:28;;;;;;;18.88;10.98;;;;;;;;;;4991263;28;88226;-75
2022/08/25 19:37:58;;;;;;;17.60;11.23;;;;;;;;;;4970428;28;89495;-75
2022/08/25 19:40:26;;;;;;;19.05;12.48;;;;;;;;;;4980940;28;91344;-75
2022/08/25 19:42:53;;;;;;;17.10;11.85;;;;;;;;;;4980923;28;90695;-74
2022/08/25 19:45:21;;;;;;;19.48;11.75;;;;;;;;;;4979821;28;89531;-74
2022/08/25 19:47:48;;;;;;;22.85;12.25;;;;;;;;;;4966650;28;90683;-74
2022/08/25 19:50:16;;;;;;;21.67;12.38;;;;;;;;;;4978239;28;89058;-74
2022/08/25 19:52:43;;;;;;;16.95;12.45;;;;;;;;;;4980473;28;91222;-75
2022/08/25 19:55:10;;;;;;;17.73;12.63;;;;;;;;;;4980652;28;91324;-75
2022/08/25 19:57:37;;;;;;;24.88;13.63;;;;;;;;;;4985653;28;90234;-75
2022/08/25 20:00:17;;;;;;;19.08;14.88;;;;;;;;;;4982705;28;91643;-75
2022/08/25 20:02:43;;;;;;;20.27;13.50;;;;;;;;;;4981628;28;91308;-75
2022/08/25 20:05:12;;;;;;;20.88;15.00;;;;;;;;;;4984837;28;90778;-75
2022/08/25 20:07:40;;;;;;;20.23;15.98;;;;;;;;;;4986179;28;91153;-75
2022/08/25 20:10:08;;;;;;;23.08;15.88;;;;;;;;;;4986291;28;89038;-75
2022/08/25 20:12:39;;;;;;;20.95;16.67;;;;;;;;;;4981742;28;91278;-75
2022/08/25 20:15:06;;;;;;;29.58;22.85;;;;;;;;;;4970659;28;90941;-75
2022/08/25 20:17:33;;;;;;;28.48;22.05;;;;;;;;;;4970746;28;89691;-75
2022/08/25 20:20:00;;;;;;;33.97;25.23;;;;;;;;;;4973122;28;91683;-74
2022/08/25 20:22:30;;;;;;;39.08;24.35;;;;;;;;;;4975787;28;89493;-76
2022/08/25 20:24:58;;;;;;;33.25;24.85;;;;;;;;;;4974238;28;91412;-76
2022/08/25 20:27:27;;;;;;;34.05;25.00;;;;;;;;;;4971390;28;91289;-74
2022/08/25 20:29:53;;;;;;;32.88;23.25;;;;;;;;;;4974323;28;90896;-74
2022/08/25 20:32:19;;;;;;;29.25;22.83;;;;;;;;;;4973335;28;91040;-75
2022/08/25 20:34:47;;;;;;;34.45;25.55;;;;;;;;;;4969460;28;90617;-74
2022/08/25 20:37:13;;;;;;;34.42;22.95;;;;;;;;;;4969887;28;89965;-75
2022/08/25 20:39:40;;;;;;;31.77;22.70;;;;;;;;;;4972334;28;90821;-75
2022/08/25 20:42:06;;;;;;;27.02;20.95;;;;;;;;;;4972979;28;91187;-75
2022/08/25 20:44:36;;;;;;;31.00;19.90;;;;;;;;;;4972027;28;88967;-74
2022/08/25 20:47:09;;;;;;;27.17;17.58;;;;;;;;;;4964832;28;91205;-74
2022/08/25 20:49:36;;;;;;;24.35;17.42;;;;;;;;;;4975242;28;90936;-75
2022/08/25 20:52:03;;;;;;;22.30;15.52;;;;;;;;;;4973438;28;90678;-74
2022/08/25 20:54:30;;;;;;;25.98;15.90;;;;;;;;;;4970771;28;90517;-75
2022/08/25 20:56:56;;;;;;;26.20;15.50;;;;;;;;;;4972950;28;89643;-74
2022/08/25 20:59:23;;;;;;;25.75;15.55;;;;;;;;;;4972470;28;91199;-75
2022/08/25 21:01:50;;;;;;;21.25;14.32;;;;;;;;;;4970924;28;91330;-75
2022/08/25 21:04:17;;;;;;;21.40;13.68;;;;;;;;;;4969167;28;89509;-75
2022/08/25 21:06:45;;;;;;;23.80;13.52;;;;;;;;;;4974779;28;91102;-76
2022/08/25 21:09:13;;;;;;;25.15;14.23;;;;;;;;;;4971256;28;90659;-76
2022/08/25 21:11:41;;;;;;;21.63;13.75;;;;;;;;;;4962267;28;89172;-76
2022/08/25 21:14:08;;;;;;;28.63;13.15;;;;;;;;;;4971931;28;89692;-76
2022/08/25 21:16:36;;;;;;;20.63;13.68;;;;;;;;;;4971576;28;91581;-76
2022/08/25 21:19:03;;;;;;;23.92;12.02;;;;;;;;;;4971001;28;91231;-76
2022/08/25 21:21:36;;;;;;;22.38;12.40;;;;;;;;;;4972164;28;90818;-75
2022/08/25 21:24:02;;;;;;;28.55;14.25;;;;;;;;;;4973042;28;89216;-75
2022/08/25 21:26:34;;;;;;;21.52;13.13;;;;;;;;;;4964416;28;91648;-75
2022/08/25 21:29:02;;;;;;;22.98;14.02;;;;;;;;;;4968034;28;90752;-76
2022/08/25 21:31:29;;;;;;;20.08;13.43;;;;;;;;;;4968142;28;90216;-75
2022/08/25 21:33:56;;;;;;;19.35;13.20;;;;;;;;;;4972355;28;91185;-76
2022/08/25 21:36:23;;;;;;;19.85;12.02;;;;;;;;;;4970362;28;90208;-75
2022/08/25 21:38:50;;;;;;;25.30;13.70;;;;;;;;;;4969656;28;91550;-75
2022/08/25 21:41:19;;;;;;;24.13;14.57;;;;;;;;;;4969328;28;90575;-76
2022/08/25 21:43:46;;;;;;;25.15;13.82;;;;;;;;;;4969374;28;89239;-75
2022/08/25 21:46:14;;;;;;;21.98;13.18;;;;;;;;;;4971988;28;91189;-75
2022/08/25 21:48:40;;;;;;;20.67;13.40;;;;;;;;;;4971155;28;90012;-75
2022/08/25 21:51:08;;;;;;;25.48;13.00;;;;;;;;;;4968666;28;89060;-75
2022/08/25 21:53:35;;;;;;;26.23;13.15;;;;;;;;;;4967496;28;91605;-75
2022/08/25 21:56:05;;;;;;;24.00;12.88;;;;;;;;;;4969762;28;90640;-73
2022/08/25 21:58:32;;;;;;;21.20;11.60;;;;;;;;;;4976086;28;91296;-74
2022/08/25 22:01:10;;;;;;;20.23;11.75;;;;;;;;;;4969595;28;90572;-75
2022/08/25 22:03:37;;;;;;;20.80;11.05;;;;;;;;;;4960123;28;90054;-75
2022/08/25 22:06:05;;;;;;;18.83;10.00;;;;;;;;;;4970423;28;91601;-75
2022/08/25 22:08:32;;;;;;;19.35;9.82;;;;;;;;;;4971442;28;90493;-75
2022/08/25 22:10:59;;;;;;;17.45;9.73;;;;;;;;;;4969821;28;88982;-75
2022/08/25 22:13:26;;;;;;;18.77;9.25;;;;;;;;;;4969723;28;89013;-75
2022/08/25 22:15:53;;;;;;;19.63;8.90;;;;;;;;;;4969143;28;88589;-76
2022/08/25 22:18:20;;;;;;;18.63;7.90;;;;;;;;;;4973673;28;87450;-75
2022/08/25 22:20:47;;;;;;;16.88;7.85;;;;;;;;;;4973782;28;88206;-75
2022/08/25 22:23:14;;;;;;;20.05;8.48;;;;;;;;;;4953116;28;88401;-75
2022/08/25 22:25:46;;;;;;;15.88;7.45;;;;;;;;;;4969701;28;88864;-75
2022/08/25 22:28:14;;;;;;;19.33;7.72;;;;;;;;;;4966791;28;89412;-75
2022/08/25 22:30:41;;;;;;;16.48;7.90;;;;;;;;;;4970823;28;88291;-75
2022/08/25 22:33:07;;;;;;;20.33;7.82;;;;;;;;;;4970182;28;89413;-75
2022/08/25 22:35:34;;;;;;;15.65;7.38;;;;;;;;;;4971396;28;88396;-74
2022/08/25 22:38:01;;;;;;;16.98;7.25;;;;;;;;;;4972409;28;88387;-74
2022/08/25 22:40:28;;;;;;;14.35;6.45;;;;;;;;;;4972041;28;89030;-74
2022/08/25 22:42:54;;;;;;;18.13;7.15;;;;;;;;;;4971240;28;88715;-76
2022/08/25 22:45:20;;;;;;;19.75;7.30;;;;;;;;;;4969920;28;88672;-74
2022/08/25 22:47:50;;;;;;;13.32;5.75;;;;;;;;;;4967544;28;88283;-74
2022/08/25 22:50:18;;;;;;;15.43;5.38;;;;;;;;;;4973554;28;87342;-74
2022/08/25 22:52:45;;;;;;;18.00;6.25;;;;;;;;;;4969631;28;89083;-74
2022/08/25 22:55:13;;;;;;;16.17;5.40;;;;;;;;;;4971305;28;88471;-74
2022/08/25 22:57:41;;;;;;;14.25;5.50;;;;;;;;;;4968930;28;88558;-74
2022/08/25 23:00:11;;;;;;;15.85;5.95;;;;;;;;;;4970918;28;88837;-74
2022/08/25 23:02:39;;;;;;;10.52;4.85;;;;;;;;;;4970484;28;88587;-76
2022/08/25 23:05:05;;;;;;;11.77;4.60;;;;;;;;;;4971926;28;88871;-75
2022/08/25 23:07:33;;;;;;;14.30;5.03;;;;;;;;;;4971144;28;88453;-76
2022/08/25 23:10:02;;;;;;;14.02;4.60;;;;;;;;;;4969665;28;90035;-75
2022/08/25 23:12:28;;;;;;;12.60;4.40;;;;;;;;;;4968039;28;88872;-75
2022/08/25 23:14:55;;;;;;;11.23;4.05;;;;;;;;;;4968770;28;89137;-75
2022/08/25 23:17:21;;;;;;;13.98;4.00;;;;;;;;;;4965770;28;90186;-75
2022/08/25 23:19:47;;;;;;;14.18;3.47;;;;;;;;;;4967694;28;89878;-74
2022/08/25 23:22:16;;;;;;;10.40;3.17;;;;;;;;;;4976095;28;90274;-75
2022/08/25 23:24:43;;;;;;;14.23;3.80;;;;;;;;;;4971130;28;88644;-75
2022/08/25 23:27:13;;;;;;;7.97;2.95;;;;;;;;;;4970885;28;88781;-75
2022/08/25 23:29:42;;;;;;;15.87;3.37;;;;;;;;;;4968938;28;90107;-75
2022/08/25 23:32:09;;;;;;;9.60;3.05;;;;;;;;;;4968187;28;88869;-75
2022/08/25 23:34:41;;;;;;;9.50;3.20;;;;;;;;;;4971099;28;89642;-76
2022/08/25 23:37:12;;;;;;;8.18;3.47;;;;;;;;;;4969879;28;88449;-74
2022/08/25 23:39:39;;;;;;;11.15;3.38;;;;;;;;;;4971347;28;88340;-74
2022/08/25 23:42:07;;;;;;;9.80;3.45;;;;;;;;;;4967420;28;89516;-75
2022/08/25 23:44:35;;;;;;;12.60;3.67;;;;;;;;;;4968613;28;90813;-76
2022/08/25 23:47:02;;;;;;;10.73;3.30;;;;;;;;;;4969275;28;90355;-75
2022/08/25 23:49:29;;;;;;;15.48;3.30;;;;;;;;;;4973213;28;89872;-75
2022/08/25 23:51:55;;;;;;;9.57;3.55;;;;;;;;;;4973524;28;88898;-75
2022/08/25 23:54:21;;;;;;;10.43;4.15;;;;;;;;;;4973768;28;89649;-76
2022/08/25 23:56:56;;;;;;;11.55;3.55;;;;;;;;;;4969552;28;88830;-76
2022/08/25 23:59:22;;;;;;;9.05;3.40;;;;;;;;;;4970926;28;90390;-75
